Portada
METAR-TAF:

METAR-TAF

Aeroports :

Puerto Cabezas, Nicaragua

latitud: 14-03N, longitud: 083-22W, altitud: 20 m

Observació

L'informe es va fer fa 43 minuts, a les 20:00 UTC
Vent 4 kt del Est
Temperatura 31°C
Humitat 79%
Pressió 1008 hPa
Visibilitat: 6000 m
Escasses núvols a una alçada de 1400 ft, Cumulonimbus.
Núvols disperses a una alçada de 1600 ft
en les proximitats, pluja

METAR: MNPC 292000Z 09004KT 6000 VCRA FEW014CB SCT016 31/27 Q1008 CBRA/SW

Hora: 14:43 (20:43 UTC)

Pronòstic

L'informe es va fer fa 4 hores i 45 minuts, a les 15:58 UTC
Pronòstic vàlid del 29 a les 18 UTC al 30 a les 18 UTC
Vent 6 kt del Est/Nord-Est
Visibilitat: 7000 m
Núvols disperses a una alçada de 1600 ft
Temporalment
l' 29 a les 21 UTC al 30 a les 02 UTC
Vent 12 kt amb direcció variable
Visibilitat: 6000 m
Escasses núvols a una alçada de 1400 ft, Cumulonimbus.
Cel ennuvolat a una alçada de 1600 ft

TAF: MNPC 291558Z 2918/3018 07006KT 7000 HZ/VCRA SCT016 TEMPO 2921/3002 VRB12KT 6000 DZ/TSRA FEW014CB BKN016

Observacions i pronòstics meteorològics de més de 4000 aeroports (METAR i TAF).

Les estacions disponibles són els punts grocs i vermells al mapa.

Posi el ratolí al punt desitjat per veure el nom de l'estació.

Feu clic per veure les observacions i els pronòstics meteorològics.

Per canviar el mapa: feu clic els botons verds amb una creu de color negre per apropar; al botó verd amb un guió per allunyar la imatge; o en les fletxes verdes per a mapes adjacents.


METAR-TAF: